Weather observations for the past three days for
Ladysmith - Rusk County Airport
Imperial (Metric)
Date Time (cdt) Wind (mph) Vis. (mi.) Weather Sky Cond. Temperature (ºF) Relative Humidity Wind Chill (°F) Heat Index (°F) Pressure Precipitation (in)
Air Dwpt 6 hour altimeter (in) sea level (mb) 1 hr 3 hr 6 hr
Max. Min.
10 08:15 NW 9 10.00 Fair CLR 44.6 30.7 58% 40 30.08 0.0
10 07:55 NW 10 10.00 Fair CLR 43.7 30.2 59% 39 30.07 0.0
10 07:35 NW 9 10.00 Fair CLR 42.8 30.2 61% 38 30.07 0.0
10 07:15 W 5 10.00 Partly Cloudy SCT095 39.4 29.7 68% 37 30.06 0.0
10 06:55 NW 5 10.00 Mostly Cloudy BKN095 40.8 30.2 40.8 31.8 66% 38 30.06 0.0
10 06:35 W 5 10.00 Fair CLR 37.2 29.5 74% 34 30.05 0.0
10 06:15 W 6 10.00 Partly Cloudy SCT100 37.2 28.4 71% 33 30.04 0.0
10 05:55 Calm 10.00 Overcast OVC100 37 30 76% 30.04 0.0
10 05:35 W 5 10.00 Overcast SCT065 SCT075 OVC100 37.4 29.8 74% 34 30.03 0.0
10 05:15 W 5 10.00 Overcast BKN065 BKN075 OVC100 37.4 28.2 70% 34 30.02 0.0
10 04:55 Calm 10.00 Overcast BKN065 BKN075 OVC100 35.8 27.1 71% 30.01 0.0
10 04:35 W 3 10.00 Overcast BKN070 OVC075 36.5 26.8 68% 30.01 0.0
10 04:15 Calm 10.00 Overcast BKN070 OVC110 33.4 27.1 78% 30 0.0
10 03:50 Calm 10.00 Overcast OVC080 34 27 76% 29.99 0.0
10 03:35 Calm 10.00 Mostly Cloudy BKN075 BKN080 32.4 26.2 78% 29.99 0.0
10 03:15 Calm 10.00 Partly Cloudy SCT085 34.5 26.1 71% 29.98 0.0
10 02:55 Calm 10.00 Partly Cloudy SCT085 32.2 26.4 79% 29.98 0.0
10 02:35 Calm 10.00 Partly Cloudy SCT085 32 26.2 79% 29.98 0.0
10 02:15 Calm 10.00 Fair CLR 32 26.6 80% 29.98 0.0
10 01:55 Calm 10.00 Fair CLR 34.2 25.5 71% 29.97 0.0
10 01:35 Calm 10.00 Fair CLR 34 26.4 74% 29.97 0.0
10 01:15 Calm 10.00 Fair CLR 35.6 25.5 67% 29.97 0.0
10 00:55 Calm 10.00 Fair CLR 35.2 25.9 52.2 34.9 69% 29.97 0.0
10 00:35 Calm 10.00 Fair CLR 35.6 26.1 68% 29.97 0.0
10 00:15 W 3 10.00 Fair CLR 37.6 25.9 63% 29.96 0.0
09 23:55 Calm 10.00 Fair CLR 38.7 25.3 59% 29.96 0.0
09 23:35 N 5 10.00 Fair CLR 41.4 24.3 51% 39 29.96 0.0
09 23:15 N 7 10.00 Fair CLR 42.1 24.1 49% 38 29.95 0.0
09 22:55 N 8 10.00 Fair CLR 43 24.4 48% 39 29.95 0.0
09 22:35 N 8 10.00 Partly Cloudy SCT095 44.4 24.4 45% 40 29.94 0.0
09 22:15 N 8 10.00 Mostly Cloudy BKN095 45.7 24.6 44% 42 29.93 0.0
09 21:55 N 9 10.00 Overcast OVC095 47.1 25.3 43% 43 29.92 0.0
09 21:35 NW 8 10.00 Overcast SCT080 OVC095 46.9 25.5 43% 44 29.91 0.0
09 21:10 N 7 10.00 Overcast OVC095 46.6 25.5 44% 44 29.9 0.0
09 20:55 N 6 10.00 Overcast OVC095 46.9 26.2 45% 45 29.88 0.0
09 20:35 NW 6 10.00 Mostly Cloudy BKN095 46.9 25.7 44% 45 29.88 0.0
09 20:10 N 7 10.00 Overcast OVC095 49.5 24.8 38% 47 29.86 0.0
09 19:55 NW 10 10.00 Overcast OVC095 50 23.9 36% 46 29.85 0.0
09 19:35 N 7 10.00 Overcast OVC085 50.5 25 37% 29.85 0.0
09 19:15 NW 10 G 18 10.00 Overcast OVC085 51.4 24.1 34% 29.84 0.0
09 18:55 NW 12 10.00 Mostly Cloudy BKN085 52.5 23.7 57.6 51.4 33% 29.83 0.0
09 18:35 N 9 10.00 Mostly Cloudy BKN085 52.9 23.9 32% 29.83 0.0
09 18:15 N 10 10.00 Mostly Cloudy BKN085 52.2 23.9 33% 29.82 0.0
09 17:55 N 17 G 21 10.00 Mostly Cloudy BKN085 52.7 24.3 33% 29.82 0.0
09 17:35 NW 18 G 23 10.00 Partly Cloudy SCT085 52.7 25 34% 29.81 0.0
09 17:15 N 16 G 23 10.00 Mostly Cloudy BKN085 54.5 25 32% 29.8 0.0
09 16:55 NW 16 G 21 10.00 Mostly Cloudy BKN085 55.6 24.6 30% 29.8 0.0
09 16:30 NW 17 G 23 10.00 Mostly Cloudy BKN075 55.6 25 31% 29.78 0.0
09 16:15 NW 16 G 24 10.00 Mostly Cloudy BKN075 54.3 24.6 32% 29.78 0.0
09 15:55 NW 12 G 24 10.00 Partly Cloudy SCT075 55.6 24.1 30% 29.77 0.0
09 15:35 NW 14 G 26 10.00 Mostly Cloudy SCT075 BKN090 55.6 27 33% 29.77 0.0
09 15:15 NW 15 G 25 10.00 Overcast BKN075 OVC090 56.8 27 32% 29.76 0.0
09 14:55 W 17 G 25 10.00 Overcast BKN075 OVC085 56.7 25.9 31% 29.76 0.0
09 14:35 W 17 G 26 10.00 Mostly Cloudy BKN080 BKN085 57.4 28.6 33% 29.75 0.0
09 14:15 W 16 G 24 10.00 Partly Cloudy SCT080 56.8 27.9 33% 29.74 0.0
09 13:55 N 20 G 28 10.00 Partly Cloudy SCT080 56.5 27.9 33% 29.73 0.0
09 13:35 NW 13 G 25 10.00 Partly Cloudy SCT080 55.4 25.7 32% 29.73 0.0
09 13:15 N 18 G 25 10.00 Mostly Cloudy BKN070 54.5 25 32% 29.72 0.0
09 12:35 W 15 G 21 10.00 Mostly Cloudy BKN070 54.3 28 36% 29.71 0.0
09 12:15 NW 12 G 26 10.00 Partly Cloudy SCT070 54.7 27.3 35% 29.71 0.0
09 11:55 NW 20 G 26 10.00 Partly Cloudy SCT070 53.4 26.4 35% 29.7 0.0
09 11:35 NW 17 G 28 10.00 Mostly Cloudy SCT060 BKN070 BKN080 52.2 27.5 39% 29.7 0.0
09 11:15 NW 17 10.00 Mostly Cloudy BKN060 BKN070 51.1 31.6 48% 29.69 0.0
09 10:55 NW 14 G 23 10.00 Mostly Cloudy BKN050 BKN065 51.6 32.2 48% 29.69 0.0
09 10:35 NW 16 G 21 10.00 Partly Cloudy SCT050 51.4 32.9 49% 29.68 0.0
09 10:15 NW 14 10.00 Partly Cloudy SCT080 50.2 33.4 53% 29.67 0.0
09 09:55 NW 10 10.00 Partly Cloudy SCT070 SCT080 48.7 36.1 62% 45 29.66 0.0
09 09:35 NW 12 10.00 Overcast SCT050 BKN060 OVC080 46.9 38.1 72% 42 29.66 0.0
09 09:15 NW 14 G 20 10.00 Overcast SCT048 OVC060 46.4 39 76% 41 29.65 0.0
09 08:55 W 9 10.00 Overcast SCT017 SCT048 OVC070 46.8 41.7 83% 43 29.65 0.0
09 08:15 W 8 10.00 Overcast OVC050 43.5 40.5 89% 39 29.64 0.0
09 07:55 W 8 10.00 Overcast OVC050 42.8 39.9 90% 39 29.63 0.0
09 07:35 W 6 10.00 Overcast OVC050 42.4 40.3 92% 39 29.63 0.0
09 07:15 Calm 10.00 Overcast SCT040 OVC048 41.7 40.1 94% 29.62 0.0
09 06:55 Calm 10.00 Overcast BKN029 OVC039 41.2 39.2 50.9 41 93% 29.61 0.0 0.06 0.1
09 06:35 NW 7 10.00 Light Rain OVC026 41 39.2 93% 37 29.62 0.0 0.06
09 06:15 NW 8 7.00 Rain BKN026 OVC032 41.5 39.4 92% 37 29.63 0.0 0.03
09 05:55 NW 12 G 18 10.00 Rain BKN031 OVC040 42.3 39.2 89% 36 29.62 0.0 0.04
09 05:35 NW 15 G 21 10.00 Rain OVC041 44.4 37.9 78% 38 29.6 0.0 0.01
09 05:15 NW 15 G 22 10.00 Light Rain BKN043 BKN049 OVC060 46 37.4 72% 40 29.61 0.0
09 04:35 NW 7 10.00 Overcast BKN070 BKN080 OVC090 48.9 29.3 47% 46 29.58 0.0
09 04:15 NW 6 10.00 Overcast OVC100 48.4 29.7 48% 46 29.58 0.0
09 03:55 W 5 10.00 Overcast BKN100 OVC120 46.9 30.6 53% 45 29.58 0.0
09 03:35 NW 3 10.00 Overcast SCT080 OVC100 46.6 30.4 53% 29.58 0.0
09 03:15 NW 3 10.00 Overcast SCT080 OVC100 48.4 31.1 51% 29.57 0.0
09 02:55 W 5 10.00 Mostly Cloudy BKN110 46.4 32.2 58% 45 29.58 0.0
09 02:35 NW 3 10.00 Fair CLR 48.4 29.7 48% 29.57 0.0
09 02:15 NW 6 10.00 Fair CLR 49.5 29.3 46% 48 29.58 0.0
09 01:55 NW 8 10.00 Fair CLR 50.9 28.6 42% 29.58 0.0
09 01:35 NW 10 10.00 Fair CLR 50.2 29.1 44% 29.59 0.0
09 01:15 NW 8 10.00 Fair CLR 49.5 29.7 47% 47 29.58 0.0
09 00:55 NW 7 10.00 Fair CLR 50.5 30.2 61.5 43 46% 29.57 0.0
09 00:35 NW 9 10.00 Fair CLR 50.9 29.8 44% 29.57 0.0
09 00:15 W 8 10.00 Fair CLR 49.3 31.6 51% 46 29.58 0.0
08 23:55 W 9 10.00 Fair CLR 49.3 32 52% 46 29.57 0.0
08 23:35 W 6 10.00 Fair CLR 43.2 33.6 69% 40 29.56 0.0
08 23:15 Calm 10.00 Fair CLR 43.9 35.6 73% 29.56 0.0
08 22:55 Calm 10.00 Mostly Cloudy BKN110 47.8 37.6 68% 29.56 0.0
08 22:35 Calm 10.00 Overcast OVC110 50.4 33.4 52% 29.56 0.0
08 22:15 Calm 10.00 Overcast OVC110 52 31.3 45% 29.57 0.0
08 21:55 S 3 10.00 Overcast OVC120 50.9 34 52% 29.57 0.0
08 21:35 Calm 10.00 Overcast OVC120 52.5 34.7 51% 29.57 0.0
08 21:15 Calm 10.00 Overcast OVC120 53.2 32.5 45% 29.58 0.0
08 20:55 Calm 10.00 Overcast OVC120 51.6 34.5 52% 29.57 0.0
08 20:35 Calm 10.00 Overcast OVC120 56.8 29.7 36% 29.58 0.0
08 20:15 Calm 10.00 Overcast OVC120 57.6 28.6 33% 29.58 0.0
08 19:55 Calm 10.00 Overcast OVC110 58.6 30.9 35% 29.58 0.0
08 19:35 W 5 10.00 Mostly Cloudy BKN110 59.4 30.4 33% 29.58 0.0
08 19:15 W 6 10.00 Partly Cloudy SCT110 60.3 32 35% 29.59 0.0
08 18:55 W 10 10.00 Partly Cloudy SCT110 61.9 30.9 65.1 58.6 31% 29.59 0.0
08 18:35 W 9 G 18 10.00 Fair CLR 61.7 29.7 30% 29.6 0.0
08 18:15 W 14 G 21 10.00 Partly Cloudy SCT100 63.1 29.1 28% 29.61 0.0
08 17:55 W 15 G 26 10.00 Partly Cloudy SCT095 61.9 30.4 31% 29.61 0.0
08 17:35 W 14 G 22 10.00 Mostly Cloudy BKN095 63.1 29.5 28% 29.62 0.0
08 17:15 W 20 G 26 10.00 Mostly Cloudy BKN095 62.8 29.8 29% 29.61 0.0
08 16:55 W 13 G 23 10.00 Partly Cloudy SCT095 63.9 27.7 25% 29.61 0.0
08 16:35 SW 14 G 22 10.00 Partly Cloudy SCT095 64 29.3 27% 29.61 0.0
08 16:15 SW 15 G 22 10.00 Partly Cloudy SCT095 62.4 28.2 27% 29.62 0.0
08 15:55 SW 14 G 20 10.00 Partly Cloudy SCT120 61.7 27.3 27% 29.63 0.0
08 15:35 W 15 G 23 10.00 Mostly Cloudy SCT090 BKN120 63 28 27% 29.63 0.0
08 15:15 SW 13 G 21 10.00 Partly Cloudy SCT090 64.4 29.8 27% 29.64 0.0
08 14:55 W 20 G 23 10.00 Fair CLR 63.5 28.6 27% 29.65 0.0
08 14:35 W 13 G 20 10.00 Partly Cloudy SCT090 62.6 28.2 27% 29.66 0.0
08 14:15 SW 7 G 12 10.00 Mostly Cloudy BKN090 61.3 27.7 28% 29.67 0.0
08 13:55 SW 6 10.00 Mostly Cloudy BKN090 61.7 28.9 29% 29.68 0.0
08 13:35 W 7 10.00 Overcast OVC100 59.7 27.1 29% 29.69 0.0
08 13:15 SW 8 10.00 Mostly Cloudy BKN100 59.2 27.9 30% 29.7 0.0
08 12:55 S 7 10.00 Partly Cloudy SCT100 SCT120 58.5 29.1 59.4 32.4 33% 29.71 0.0
08 12:35 W 12 G 16 10.00 Partly Cloudy SCT100 58.8 28.9 32% 29.72 0.0
08 12:15 SW 14 G 18 10.00 Partly Cloudy SCT085 59.2 28.6 31% 29.73 0.0
08 11:55 W 13 G 16 10.00 Mostly Cloudy SCT095 BKN110 57.4 27.1 31% 29.73 0.0
08 11:35 W 13 G 17 10.00 Overcast OVC110 57.2 27.1 32% 29.74 0.0
08 11:15 W 9 10.00 Overcast OVC110 57.2 27.3 32% 29.75 0.0
08 10:55 W 6 G 9 10.00 Overcast OVC110 57.7 26.6 30% 29.75 0.0
08 10:35 W 7 10.00 Mostly Cloudy BKN110 55.4 25.5 32% 29.76 0.0
08 10:15 W 10 10.00 Partly Cloudy SCT110 54.5 25.7 33% 29.76 0.0
08 09:55 SW 8 10.00 Fair CLR 54.5 27.7 36% 29.77 0.0
08 09:35 SW 7 10.00 Fair CLR 51.4 28.6 41% 29.78 0.0
08 09:15 S 3 10.00 Partly Cloudy SCT120 48.6 28.6 46% 29.78 0.0
08 08:55 SW 7 10.00 Partly Cloudy SCT120 48.4 27.9 45% 46 29.79 0.0
08 08:35 Calm 10.00 Fair CLR 45.5 27.9 50% 29.8 0.0
08 08:15 Calm 10.00 Fair CLR 42.8 28.4 57% 29.8 0.0
08 07:55 Calm 10.00 Fair CLR 41.4 28.2 60% 29.8 0.0
08 07:35 Calm 10.00 Fair CLR 38.1 29.1 70% 29.8 0.0
08 07:15 Calm 10.00 Fair CLR 34.9 29.3 80% 29.8 0.0
08 06:55 Calm 10.00 Fair CLR 32.2 27.5 33.8 28.8 83% 29.79 0.0
08 06:35 Calm 10.00 Fair CLR 31.1 27.1 85% 29.79 0.0
08 06:15 Calm 10.00 Fair CLR 29.3 25.7 86% 29.78 0.0
08 05:55 Calm 10.00 Fair CLR 29.3 25.3 85% 29.78 0.0
08 05:35 Calm 10.00 Fair CLR 29.5 25.9 86% 29.78 0.0
08 05:15 Calm 10.00 Fair CLR 29.3 26.8 90% 29.78 0.0
08 04:55 Calm 10.00 Fair CLR 30.6 26.1 83% 29.78 0.0
08 04:35 Calm 10.00 Fair CLR 28.9 26.6 91% 29.78 0.0
08 04:15 Calm 10.00 Fair CLR 30.2 25.7 83% 29.78 0.0
08 03:55 Calm 10.00 Fair CLR 30.2 26.6 86% 29.78 0.0
08 03:35 Calm 10.00 Fair CLR 31.1 26.1 82% 29.79 0.0
08 03:15 Calm 10.00 Fair CLR 30.9 25.2 79% 29.79 0.0
08 02:55 Calm 10.00 Fair CLR 30.9 27.1 86% 29.8 0.0
08 02:35 Calm 10.00 Fair CLR 32 26.2 79% 29.8 0.0
08 02:15 Calm 10.00 Fair CLR 32 28.2 86% 29.8 0.0
08 01:55 Calm 10.00 Fair CLR 32 26.1 79% 29.8 0.0
08 01:35 Calm 10.00 Fair CLR 33.1 26.6 77% 29.8 0.0
08 01:15 Calm 10.00 Fair CLR 32 26.6 80% 29.81 0.0
08 00:55 Calm 10.00 Fair CLR 34 27.9 51.3 32.7 78% 29.81 0.0
08 00:35 Calm 10.00 Fair CLR 33.3 29.1 85% 29.81 0.0
08 00:15 Calm 10.00 Fair CLR 34.2 29.7 84% 29.81 0.0
07 23:55 Calm 10.00 Partly Cloudy SCT090 34.7 29.5 81% 29.81 0.0
07 23:35 Calm 10.00 Partly Cloudy SCT090 34.2 29.5 83% 29.82 0.0
07 23:15 Calm 10.00 Partly Cloudy SCT090 35.6 31.1 84% 29.82 0.0
07 22:55 Calm 10.00 Partly Cloudy SCT090 35.6 27.5 72% 29.82 0.0
07 22:35 Calm 10.00 Partly Cloudy SCT090 36.7 27 68% 29.83 0.0
07 22:15 Calm 10.00 Fair CLR 38.1 27.9 67% 29.83 0.0
07 21:55 Calm 10.00 Fair CLR 37.6 32.2 81% 29.83 0.0
07 21:35 Calm 10.00 Fair CLR 39.4 26.6 60% 29.83 0.0
07 21:15 Calm 10.00 Partly Cloudy SCT100 43 26.4 52% 29.83 0.0
07 20:55 Calm 10.00 Partly Cloudy SCT100 45.5 23.2 41% 29.82 0.0
07 20:35 W 3 10.00 Partly Cloudy SCT100 46.8 21.9 37% 29.81 0.0
07 20:15 W 5 10.00 Fair CLR 47.5 22.6 38% 46 29.81 0.0
07 19:55 W 8 10.00 Partly Cloudy SCT080 SCT090 49.5 23.7 36% 47 29.81 0.0
07 19:35 W 8 10.00 Mostly Cloudy SCT080 BKN090 BKN110 50 25.5 39% 47 29.81 0.0
07 19:15 W 9 10.00 Mostly Cloudy BKN080 BKN110 49.6 24.1 37% 46 29.81 0.0
07 18:55 W 8 10.00 Overcast SCT055 SCT070 OVC080 50.9 23.7 53.6 46.9 35% 29.81 0.0
07 18:35 W 12 10.00 Overcast SCT055 BKN085 OVC090 50.7 20.5 30% 29.81 0.0
07 18:15 W 8 10.00 Overcast BKN075 BKN090 OVC110 50.5 21.2 32% 29.81 0.0
07 17:55 W 14 G 17 10.00 Overcast OVC085 51.8 20.5 29% 29.82 0.0
07 17:35 W 17 G 22 10.00 Mostly Cloudy BKN085 52.5 21.6 30% 29.81 0.0
07 17:15 W 7 G 16 10.00 Mostly Cloudy BKN085 51.3 22.3 32% 29.82 0.0
07 16:55 W 8 10.00 Mostly Cloudy BKN085 51.1 20.3 30% 29.82 0.0
07 16:35 W 7 10.00 Overcast SCT085 OVC090 51.3 21.4 31% 29.82 0.0
07 16:15 W 10 10.00 Overcast OVC085 51.1 21.4 31% 29.83 0.0
07 15:50 W 5 10.00 Mostly Cloudy BKN075 49.8 19.9 31% 49 29.83 0.0
07 15:35 W 8 G 18 10.00 Partly Cloudy SCT075 51.6 20.1 29% 29.83 0.0
07 15:15 W 9 10.00 Partly Cloudy SCT075 53.6 22.8 30% 29.84 0.0
07 14:55 W 9 G 18 10.00 Mostly Cloudy BKN075 52.2 20.3 29% 29.84 0.0
07 14:35 W 9 G 18 10.00 Overcast OVC075 52.5 23.2 32% 29.85 0.0
07 14:15 W 6 10.00 Mostly Cloudy BKN075 51.1 20.8 30% 29.85 0.0
07 13:55 N 7 10.00 Mostly Cloudy BKN075 49.5 21.9 34% 47 29.85 0.0
07 13:35 Calm 10.00 Overcast OVC075 48.7 20.3 32% 29.85 0.0
07 13:15 W 15 G 20 10.00 Mostly Cloudy BKN075 50 21.6 33% 45 29.85 0.0
07 12:55 NW 12 10.00 Overcast OVC075 46.8 20.5 49.5 37 35% 42 29.87 0.0
07 12:35 W 6 10.00 Mostly Cloudy BKN065 49.3 22.8 35% 47 29.87 0.0
07 12:15 NW 6 10.00 Overcast BKN065 OVC075 47.5 20.7 35% 45 29.88 0.0
07 11:55 W 8 10.00 Mostly Cloudy BKN065 BKN075 47.8 22.8 37% 45 29.88 0.0
07 11:35 W 9 10.00 Mostly Cloudy BKN075 44.6 22.8 42% 40 29.88 0.0
07 11:15 W 3 10.00 Mostly Cloudy BKN060 BKN070 46.8 24.4 42% 29.89 0.0
07 10:55 W 9 10.00 Overcast SCT060 OVC075 44.6 24.4 45% 40 29.89 0.0
07 10:35 W 3 10.00 Mostly Cloudy BKN065 43 24.6 48% 29.9 0.0
07 10:15 W 8 10.00 Mostly Cloudy SCT047 BKN065 44.8 26.2 48% 41 29.9 0.0
07 09:55 W 8 10.00 Mostly Cloudy SCT040 SCT049 BKN065 45 27.3 50% 41 29.9 0.0
07 09:35 W 7 G 16 10.00 Partly Cloudy SCT038 SCT047 SCT075 42.6 26.4 53% 39 29.91 0.0
07 09:15 W 8 10.00 Partly Cloudy SCT050 SCT080 43.2 28.6 57% 39 29.91 0.0
07 08:55 W 7 10.00 Overcast SCT050 OVC080 40.5 27.9 61% 36 29.91 0.0
07 08:35 W 7 10.00 Overcast SCT050 OVC080 40.1 29.1 65% 36 29.91 0.0
Date Time (cdt) Wind (mph) Vis. (mi.) Weather Sky Cond. Air Dwpt Max. Min. Relative Humidity Wind Chill (°F) Heat Index (°F) altimeter (in) sea level (mb) 1 hr 3 hr 6 hr
6 hour
Temperature (ºF) Pressure Precipitation (in)